Time;durP1;ratioP1;P1;durP2;ratioP2;P2;SDS_P1;SDS_P2;PMS_P1;PMS_P2;Temp;Humidity;BMP_temperature;BMP_pressure;BME280_temperature;BME280_humidity;BME280_pressure;Samples;Min_cycle;Max_cycle;Signal;HPM_P1;HPM_P2
2022/07/23 00:00:37;;;;;;;0.00;0.00;;;;;;;;;;4954753;28;20130;-92
2022/07/23 00:03:05;;;;;;;0.00;0.00;;;;;;;;;;4938584;29;20075;-93
2022/07/23 00:05:33;;;;;;;0.00;0.00;;;;;;;;;;4954740;28;20098;-95
2022/07/23 00:07:59;;;;;;;0.00;0.00;;;;;;;;;;4954427;29;20051;-93
2022/07/23 00:10:25;;;;;;;0.00;0.00;;;;;;;;;;4954859;28;20053;-93
2022/07/23 00:12:51;;;;;;;0.00;0.00;;;;;;;;;;4954698;29;20047;-92
2022/07/23 00:15:17;;;;;;;0.00;0.00;;;;;;;;;;4954836;29;20047;-94
2022/07/23 00:17:43;;;;;;;0.00;0.00;;;;;;;;;;4938911;29;20043;-93
2022/07/23 00:20:10;;;;;;;0.00;0.00;;;;;;;;;;4955008;28;20411;-93
2022/07/23 00:22:36;;;;;;;0.00;0.00;;;;;;;;;;4940460;28;20047;-94
2022/07/23 00:25:02;;;;;;;0.00;0.00;;;;;;;;;;4973954;28;20041;-95
2022/07/23 00:27:28;;;;;;;0.00;0.00;;;;;;;;;;4974117;28;20101;-94
2022/07/23 00:29:54;;;;;;;0.00;0.00;;;;;;;;;;4974141;28;20505;-96
2022/07/23 00:32:20;;;;;;;0.00;0.00;;;;;;;;;;4958246;28;20039;-95
2022/07/23 00:34:46;;;;;;;0.00;0.00;;;;;;;;;;4976316;28;20046;-94
2022/07/23 00:37:12;;;;;;;0.00;0.00;;;;;;;;;;4974864;28;20078;-93
2022/07/23 00:39:38;;;;;;;0.00;0.00;;;;;;;;;;4973431;28;20047;-92
2022/07/23 00:42:04;;;;;;;0.00;0.00;;;;;;;;;;4973556;28;20044;-92
2022/07/23 00:44:30;;;;;;;0.00;0.00;;;;;;;;;;4993894;28;20039;-90
2022/07/23 00:46:58;;;;;;;0.00;0.00;;;;;;;;;;4984069;28;20105;-93
2022/07/23 00:49:24;;;;;;;0.00;0.00;;;;;;;;;;4973491;28;20082;-94
2022/07/23 00:51:50;;;;;;;0.00;0.00;;;;;;;;;;4973603;28;20150;-94
2022/07/23 00:54:17;;;;;;;0.00;0.00;;;;;;;;;;4957508;28;20051;-92
2022/07/23 00:56:44;;;;;;;0.00;0.00;;;;;;;;;;4973526;28;20050;-94
2022/07/23 00:59:10;;;;;;;0.00;0.00;;;;;;;;;;4973826;28;20042;-94
2022/07/23 01:01:36;;;;;;;0.00;0.00;;;;;;;;;;4957238;28;20043;-92
2022/07/23 01:04:02;;;;;;;0.00;0.00;;;;;;;;;;4973018;28;20107;-91
2022/07/23 01:06:28;;;;;;;0.00;0.00;;;;;;;;;;4973414;28;20047;-91
2022/07/23 01:08:55;;;;;;;0.00;0.00;;;;;;;;;;4957017;28;20046;-93
2022/07/23 01:11:22;;;;;;;0.00;0.00;;;;;;;;;;4956708;28;20043;-91
2022/07/23 01:13:48;;;;;;;0.00;0.00;;;;;;;;;;4974131;28;20216;-94
2022/07/23 01:16:14;;;;;;;0.00;0.00;;;;;;;;;;4974611;28;20134;-93
2022/07/23 01:18:40;;;;;;;0.00;0.00;;;;;;;;;;4961505;28;20050;-94
2022/07/23 01:21:06;;;;;;;0.00;0.00;;;;;;;;;;4977076;28;20091;-94
2022/07/23 01:23:32;;;;;;;0.00;0.00;;;;;;;;;;4977406;28;20050;-92
2022/07/23 01:25:58;;;;;;;0.00;0.00;;;;;;;;;;4977594;28;20045;-95
2022/07/23 01:28:24;;;;;;;0.00;0.00;;;;;;;;;;4961408;28;20093;-93
2022/07/23 01:30:50;;;;;;;0.00;0.00;;;;;;;;;;4977474;28;20069;-96
2022/07/23 01:33:16;;;;;;;0.00;0.00;;;;;;;;;;4977987;28;20371;-93
2022/07/23 01:35:42;;;;;;;0.00;0.00;;;;;;;;;;4977008;28;20046;-92
2022/07/23 01:38:08;;;;;;;0.00;0.00;;;;;;;;;;4961016;28;20150;-92
2022/07/23 01:40:35;;;;;;;0.00;0.00;;;;;;;;;;4976595;28;20050;-92
2022/07/23 01:43:01;;;;;;;0.00;0.00;;;;;;;;;;4976709;28;20128;-93
2022/07/23 01:45:27;;;;;;;0.00;0.00;;;;;;;;;;4976693;28;20098;-94
2022/07/23 01:47:53;;;;;;;0.00;0.00;;;;;;;;;;4976667;28;20043;-93
2022/07/23 01:50:19;;;;;;;0.00;0.00;;;;;;;;;;4976579;28;20049;-95
2022/07/23 01:52:45;;;;;;;0.00;0.00;;;;;;;;;;4960841;28;20039;-95
2022/07/23 01:55:13;;;;;;;0.00;0.00;;;;;;;;;;4960608;28;20054;-94
2022/07/23 01:57:39;;;;;;;0.00;0.00;;;;;;;;;;4977013;28;20056;-93
2022/07/23 02:00:06;;;;;;;0.00;0.00;;;;;;;;;;4976541;28;20506;-94
2022/07/23 02:02:32;;;;;;;0.00;0.00;;;;;;;;;;4976860;28;20062;-95
2022/07/23 02:04:58;;;;;;;0.00;0.00;;;;;;;;;;4976367;28;20039;-95
2022/07/23 02:07:24;;;;;;;0.00;0.00;;;;;;;;;;4976415;28;20061;-94
2022/07/23 02:09:50;;;;;;;0.00;0.00;;;;;;;;;;4976358;28;20034;-93
2022/07/23 02:12:16;;;;;;;0.00;0.00;;;;;;;;;;4976351;28;20057;-93
2022/07/23 02:14:42;;;;;;;0.00;0.00;;;;;;;;;;4976043;28;20043;-94
2022/07/23 02:17:08;;;;;;;0.00;0.00;;;;;;;;;;4960267;28;20039;-95
2022/07/23 02:19:34;;;;;;;0.00;0.00;;;;;;;;;;4976389;28;20039;-93
2022/07/23 02:22:00;;;;;;;0.00;0.00;;;;;;;;;;4960126;28;20466;-95
2022/07/23 02:24:26;;;;;;;0.00;0.00;;;;;;;;;;4960131;28;20055;-94
2022/07/23 02:26:55;;;;;;;0.00;0.00;;;;;;;;;;4960154;28;20114;-94
2022/07/23 02:29:21;;;;;;;0.00;0.00;;;;;;;;;;4976174;28;20161;-94
2022/07/23 02:31:47;;;;;;;0.00;0.00;;;;;;;;;;4990450;28;20058;-90
2022/07/23 02:34:13;;;;;;;0.00;0.00;;;;;;;;;;4982933;28;20215;-92
2022/07/23 02:36:39;;;;;;;0.00;0.00;;;;;;;;;;4959639;28;20055;-94
2022/07/23 02:39:05;;;;;;;0.00;0.00;;;;;;;;;;4959903;28;20061;-92
2022/07/23 02:41:31;;;;;;;0.00;0.00;;;;;;;;;;4975673;28;20411;-93
2022/07/23 02:43:57;;;;;;;0.00;0.00;;;;;;;;;;4975990;28;20417;-94
2022/07/23 02:46:23;;;;;;;0.00;0.00;;;;;;;;;;4959448;28;20062;-93
2022/07/23 02:48:49;;;;;;;0.00;0.00;;;;;;;;;;4975716;28;20042;-93
2022/07/23 02:51:15;;;;;;;0.00;0.00;;;;;;;;;;4975334;28;20157;-92
2022/07/23 02:53:42;;;;;;;0.00;0.00;;;;;;;;;;4975705;28;20042;-93
2022/07/23 02:56:08;;;;;;;0.00;0.00;;;;;;;;;;4975387;28;20054;-92
2022/07/23 02:58:34;;;;;;;0.00;0.00;;;;;;;;;;4959570;28;20042;-93
2022/07/23 03:01:00;;;;;;;0.00;0.00;;;;;;;;;;4975306;28;20125;-94
2022/07/23 03:03:26;;;;;;;0.00;0.00;;;;;;;;;;4975507;28;20497;-92
2022/07/23 03:05:52;;;;;;;0.00;0.00;;;;;;;;;;4975284;28;20034;-94
2022/07/23 03:08:21;;;;;;;0.00;0.00;;;;;;;;;;4975668;28;20041;-94
2022/07/23 03:10:47;;;;;;;0.00;0.00;;;;;;;;;;4959034;28;20134;-94
2022/07/23 03:13:13;;;;;;;0.00;0.00;;;;;;;;;;4975338;28;20077;-94
2022/07/23 03:15:39;;;;;;;0.00;0.00;;;;;;;;;;4959188;28;20522;-93
2022/07/23 03:18:05;;;;;;;0.00;0.00;;;;;;;;;;4975174;28;20042;-94
2022/07/23 03:20:31;;;;;;;0.00;0.00;;;;;;;;;;4974723;28;20116;-94
2022/07/23 03:22:57;;;;;;;0.00;0.00;;;;;;;;;;4959402;28;20038;-93
2022/07/23 03:25:23;;;;;;;0.00;0.00;;;;;;;;;;4975252;28;20058;-94
2022/07/23 03:27:49;;;;;;;0.00;0.00;;;;;;;;;;4958911;28;20479;-94
2022/07/23 03:30:15;;;;;;;0.00;0.00;;;;;;;;;;4958836;28;20057;-93
2022/07/23 03:32:41;;;;;;;0.00;0.00;;;;;;;;;;4974919;28;20050;-93
2022/07/23 03:35:07;;;;;;;0.00;0.00;;;;;;;;;;4974703;28;20070;-93
2022/07/23 03:37:33;;;;;;;0.00;0.00;;;;;;;;;;4959210;28;20406;-93
2022/07/23 03:39:59;;;;;;;0.00;0.00;;;;;;;;;;4975439;28;20114;-93
2022/07/23 03:42:25;;;;;;;0.00;0.00;;;;;;;;;;4974668;28;20146;-94
2022/07/23 03:44:51;;;;;;;0.00;0.00;;;;;;;;;;4971185;28;20119;-92
2022/07/23 03:47:21;;;;;;;0.00;0.00;;;;;;;;;;4955251;29;20039;-92
2022/07/23 03:49:47;;;;;;;0.00;0.00;;;;;;;;;;4939306;28;20452;-93
2022/07/23 03:52:13;;;;;;;0.20;0.10;;;;;;;;;;4955226;29;20054;-94
2022/07/23 03:54:39;;;;;;;0.00;0.00;;;;;;;;;;4955097;29;20083;-93
2022/07/23 03:57:06;;;;;;;0.00;0.00;;;;;;;;;;4955054;29;20058;-92
2022/07/23 03:59:32;;;;;;;0.00;0.00;;;;;;;;;;4955122;29;20043;-93
2022/07/23 04:01:58;;;;;;;0.00;0.00;;;;;;;;;;4954520;28;20484;-93
2022/07/23 04:04:24;;;;;;;0.00;0.00;;;;;;;;;;4955009;29;20039;-93
2022/07/23 04:06:50;;;;;;;0.00;0.00;;;;;;;;;;4939176;29;20035;-95
2022/07/23 04:09:16;;;;;;;0.00;0.00;;;;;;;;;;4966256;28;20078;-90
2022/07/23 04:11:42;;;;;;;0.00;0.00;;;;;;;;;;4972370;28;20039;-92
2022/07/23 04:14:08;;;;;;;0.00;0.00;;;;;;;;;;4938805;29;20035;-92
2022/07/23 04:16:34;;;;;;;0.30;0.00;;;;;;;;;;4954251;29;20105;-93
2022/07/23 04:19:00;;;;;;;0.00;0.00;;;;;;;;;;4954568;29;20050;-93
2022/07/23 04:21:26;;;;;;;0.00;0.00;;;;;;;;;;4953750;28;20051;-93
2022/07/23 04:23:52;;;;;;;0.00;0.00;;;;;;;;;;4954723;29;20058;-94
2022/07/23 04:26:18;;;;;;;0.00;0.00;;;;;;;;;;4954738;29;20046;-94
2022/07/23 04:28:44;;;;;;;0.00;0.00;;;;;;;;;;4954826;29;20042;-94
2022/07/23 04:31:10;;;;;;;0.00;0.00;;;;;;;;;;4954606;28;20043;-93
2022/07/23 04:33:36;;;;;;;0.00;0.00;;;;;;;;;;4959818;28;20387;-95
2022/07/23 04:36:02;;;;;;;0.00;0.00;;;;;;;;;;4957847;28;20049;-94
2022/07/23 04:38:28;;;;;;;0.00;0.00;;;;;;;;;;4974350;28;20049;-94
2022/07/23 04:40:54;;;;;;;0.00;0.00;;;;;;;;;;4973490;28;20069;-93
2022/07/23 04:43:20;;;;;;;0.00;0.00;;;;;;;;;;4973696;28;20465;-93
2022/07/23 04:45:46;;;;;;;0.00;0.00;;;;;;;;;;4957282;28;20089;-93
2022/07/23 04:48:12;;;;;;;0.00;0.00;;;;;;;;;;4974007;28;20039;-93
2022/07/23 04:50:38;;;;;;;0.00;0.00;;;;;;;;;;4956800;28;20047;-93
2022/07/23 04:53:05;;;;;;;0.00;0.00;;;;;;;;;;4957408;28;20049;-93
2022/07/23 04:55:31;;;;;;;0.00;0.00;;;;;;;;;;4974034;28;20062;-95
2022/07/23 04:57:57;;;;;;;0.00;0.00;;;;;;;;;;4973584;28;20050;-93
2022/07/23 05:00:26;;;;;;;0.00;0.00;;;;;;;;;;4973841;28;20049;-93
2022/07/23 05:02:52;;;;;;;0.00;0.00;;;;;;;;;;4957892;28;20050;-94
2022/07/23 05:05:18;;;;;;;0.15;0.00;;;;;;;;;;4973992;28;20386;-94
2022/07/23 05:07:44;;;;;;;0.00;0.00;;;;;;;;;;4973502;28;20038;-95
2022/07/23 05:10:10;;;;;;;0.00;0.00;;;;;;;;;;4973583;28;20043;-94
2022/07/23 05:12:36;;;;;;;0.00;0.00;;;;;;;;;;4973232;28;20093;-92
2022/07/23 05:15:02;;;;;;;0.00;0.00;;;;;;;;;;4973713;28;20043;-93
2022/07/23 05:17:28;;;;;;;0.00;0.00;;;;;;;;;;4957302;28;20039;-94
2022/07/23 05:19:54;;;;;;;0.00;0.00;;;;;;;;;;4973470;28;20490;-94
2022/07/23 05:22:20;;;;;;;0.00;0.00;;;;;;;;;;4973106;28;20089;-95
2022/07/23 05:24:46;;;;;;;0.00;0.00;;;;;;;;;;4970301;28;20131;-93
2022/07/23 05:27:12;;;;;;;0.00;0.00;;;;;;;;;;4954030;29;20075;-94
2022/07/23 05:29:38;;;;;;;0.00;0.00;;;;;;;;;;4954406;28;20078;-94
2022/07/23 05:32:04;;;;;;;0.00;0.00;;;;;;;;;;4937795;29;20050;-93
2022/07/23 05:34:30;;;;;;;0.00;0.00;;;;;;;;;;4954235;29;20098;-95
2022/07/23 05:36:58;;;;;;;0.00;0.00;;;;;;;;;;4954086;29;20107;-93
2022/07/23 05:39:24;;;;;;;0.00;0.00;;;;;;;;;;4954216;29;20117;-93
2022/07/23 05:41:50;;;;;;;0.00;0.00;;;;;;;;;;4937509;29;20526;-92
2022/07/23 05:44:16;;;;;;;0.00;0.00;;;;;;;;;;4937719;29;20039;-91
2022/07/23 05:46:42;;;;;;;0.10;0.00;;;;;;;;;;4938854;29;20043;-94
2022/07/23 05:49:08;;;;;;;0.00;0.00;;;;;;;;;;4938099;29;20098;-93
2022/07/23 05:51:34;;;;;;;0.00;0.00;;;;;;;;;;4953453;28;20043;-93
2022/07/23 05:54:00;;;;;;;0.00;0.00;;;;;;;;;;4953519;29;20050;-94
2022/07/23 05:56:26;;;;;;;0.00;0.00;;;;;;;;;;4953675;29;20137;-94
2022/07/23 05:58:52;;;;;;;0.00;0.00;;;;;;;;;;4938268;29;20079;-93
2022/07/23 06:01:19;;;;;;;0.00;0.00;;;;;;;;;;4953307;28;20086;-94
2022/07/23 06:03:45;;;;;;;0.00;0.00;;;;;;;;;;4941356;29;20509;-94
2022/07/23 06:06:11;;;;;;;0.00;0.00;;;;;;;;;;4957353;29;20125;-93
2022/07/23 06:08:37;;;;;;;0.00;0.00;;;;;;;;;;4957044;29;20120;-93
2022/07/23 06:11:03;;;;;;;0.00;0.00;;;;;;;;;;4941056;29;20050;-93
2022/07/23 06:13:29;;;;;;;0.00;0.00;;;;;;;;;;4965175;28;20065;-94
2022/07/23 06:15:55;;;;;;;0.00;0.00;;;;;;;;;;4960085;28;20502;-94
2022/07/23 06:18:21;;;;;;;0.00;0.00;;;;;;;;;;4976028;28;20054;-91
2022/07/23 06:20:47;;;;;;;0.00;0.00;;;;;;;;;;4975743;28;20054;-92
2022/07/23 06:23:16;;;;;;;0.00;0.00;;;;;;;;;;4978726;28;20070;-95
2022/07/23 06:25:42;;;;;;;0.00;0.00;;;;;;;;;;4965726;28;20027;-89
2022/07/23 06:28:08;;;;;;;0.00;0.00;;;;;;;;;;4975931;28;20039;-84
2022/07/23 06:30:34;;;;;;;0.00;0.00;;;;;;;;;;4975703;28;20097;-92
2022/07/23 06:33:00;;;;;;;0.00;0.00;;;;;;;;;;4975443;28;20049;-92
2022/07/23 06:35:26;;;;;;;0.00;0.00;;;;;;;;;;4975714;28;20046;-92
2022/07/23 06:37:52;;;;;;;0.00;0.00;;;;;;;;;;4975191;28;20038;-91
2022/07/23 06:40:18;;;;;;;0.00;0.00;;;;;;;;;;4975250;28;20042;-92
2022/07/23 06:42:44;;;;;;;0.00;0.00;;;;;;;;;;4959083;28;20039;-91
2022/07/23 06:45:10;;;;;;;0.00;0.00;;;;;;;;;;4977083;28;20186;-90
2022/07/23 06:47:36;;;;;;;0.00;0.00;;;;;;;;;;4976432;28;20047;-88
2022/07/23 06:50:03;;;;;;;0.00;0.00;;;;;;;;;;4960942;28;20062;-90
2022/07/23 06:52:29;;;;;;;0.00;0.00;;;;;;;;;;4974939;28;20043;-86
2022/07/23 06:54:55;;;;;;;0.00;0.00;;;;;;;;;;4975097;28;20038;-90
2022/07/23 06:57:21;;;;;;;0.00;0.00;;;;;;;;;;4959887;28;20043;-93
2022/07/23 06:59:47;;;;;;;0.00;0.00;;;;;;;;;;4975276;28;20541;-92
2022/07/23 07:02:13;;;;;;;0.00;0.00;;;;;;;;;;4958650;28;20042;-93
2022/07/23 07:04:39;;;;;;;0.00;0.00;;;;;;;;;;4975559;28;20042;-92
2022/07/23 07:07:05;;;;;;;0.00;0.00;;;;;;;;;;4958670;28;20513;-93
2022/07/23 07:09:31;;;;;;;0.00;0.00;;;;;;;;;;4958840;28;20039;-93
2022/07/23 07:11:57;;;;;;;0.00;0.00;;;;;;;;;;4974714;28;20074;-93
2022/07/23 07:14:23;;;;;;;0.00;0.00;;;;;;;;;;4973840;28;20130;-93
2022/07/23 07:16:49;;;;;;;0.00;0.00;;;;;;;;;;4974571;28;20054;-92
2022/07/23 07:19:15;;;;;;;0.00;0.00;;;;;;;;;;4974846;28;20043;-91
2022/07/23 07:21:41;;;;;;;1.10;0.85;;;;;;;;;;4974389;28;20078;-91
2022/07/23 07:24:07;;;;;;;0.00;0.00;;;;;;;;;;4958641;28;20110;-92
2022/07/23 07:26:33;;;;;;;0.00;0.00;;;;;;;;;;4974809;28;20034;-93
2022/07/23 07:28:59;;;;;;;0.00;0.00;;;;;;;;;;4958892;28;20046;-94
2022/07/23 07:31:25;;;;;;;0.00;0.00;;;;;;;;;;4958641;28;20042;-91
2022/07/23 07:33:51;;;;;;;0.00;0.00;;;;;;;;;;4974590;28;20045;-93
2022/07/23 07:36:17;;;;;;;0.00;0.00;;;;;;;;;;4974629;28;20394;-92
2022/07/23 07:38:43;;;;;;;0.00;0.00;;;;;;;;;;4974342;28;20118;-93
2022/07/23 07:41:10;;;;;;;0.00;0.00;;;;;;;;;;4974694;28;20130;-92
2022/07/23 07:43:36;;;;;;;0.00;0.00;;;;;;;;;;4960848;28;20042;-89
2022/07/23 07:46:11;;;;;;;0.00;0.00;;;;;;;;;;4966661;28;20046;-94
2022/07/23 07:48:43;;;;;;;0.00;0.00;;;;;;;;;;4968206;28;20039;-94
2022/07/23 07:51:14;;;;;;;0.00;0.00;;;;;;;;;;4970613;28;20129;-96
2022/07/23 07:53:49;;;;;;;0.00;0.00;;;;;;;;;;4971312;28;20039;-92
2022/07/23 07:56:15;;;;;;;0.00;0.00;;;;;;;;;;4954671;29;20049;-92
2022/07/23 07:58:41;;;;;;;0.00;0.00;;;;;;;;;;4938863;29;20125;-94
2022/07/23 08:01:07;;;;;;;0.00;0.00;;;;;;;;;;4939082;29;20398;-91
2022/07/23 08:03:33;;;;;;;0.00;0.00;;;;;;;;;;4939023;29;20118;-93
2022/07/23 08:06:00;;;;;;;0.00;0.00;;;;;;;;;;4954931;29;20376;-95
2022/07/23 08:08:27;;;;;;;0.00;0.00;;;;;;;;;;4954607;29;20098;-93
2022/07/23 08:10:53;;;;;;;0.00;0.00;;;;;;;;;;4938872;29;20367;-91
2022/07/23 08:13:19;;;;;;;0.00;0.00;;;;;;;;;;4955696;29;20079;-96
2022/07/23 08:15:45;;;;;;;0.00;0.00;;;;;;;;;;4940190;29;20042;-93
2022/07/23 08:18:11;;;;;;;0.00;0.00;;;;;;;;;;4953235;29;20193;-93
2022/07/23 08:20:43;;;;;;;0.00;0.00;;;;;;;;;;4954599;28;20056;-95
2022/07/23 08:23:19;;;;;;;0.00;0.00;;;;;;;;;;4955748;29;20097;-93
2022/07/23 08:25:46;;;;;;;0.00;0.00;;;;;;;;;;4939631;29;20043;-93
2022/07/23 08:28:13;;;;;;;0.00;0.00;;;;;;;;;;4954849;29;20090;-93
2022/07/23 08:30:40;;;;;;;0.00;0.00;;;;;;;;;;4938646;29;20054;-93
2022/07/23 08:33:13;;;;;;;0.00;0.00;;;;;;;;;;4938868;29;20459;-93
2022/07/23 08:35:50;;;;;;;0.00;0.00;;;;;;;;;;4955221;29;20499;-94
2022/07/23 08:38:17;;;;;;;0.00;0.00;;;;;;;;;;4957917;29;20522;-94
2022/07/23 08:40:47;;;;;;;0.00;0.00;;;;;;;;;;4939038;29;20054;-94
2022/07/23 08:43:23;;;;;;;0.00;0.00;;;;;;;;;;4970717;28;20510;-93
2022/07/23 08:45:52;;;;;;;0.00;0.00;;;;;;;;;;4974004;28;20042;-92
2022/07/23 08:48:18;;;;;;;0.00;0.00;;;;;;;;;;4958265;28;20113;-94
2022/07/23 08:50:45;;;;;;;0.00;0.00;;;;;;;;;;4958779;28;20363;-94
2022/07/23 08:53:11;;;;;;;0.00;0.00;;;;;;;;;;4973750;28;20129;-94
2022/07/23 08:55:37;;;;;;;0.00;0.00;;;;;;;;;;4956819;29;20043;-93
2022/07/23 08:58:03;;;;;;;0.00;0.00;;;;;;;;;;4957823;28;20133;-93
2022/07/23 09:00:29;;;;;;;0.00;0.00;;;;;;;;;;4984076;28;20050;-92
2022/07/23 09:02:56;;;;;;;0.00;0.00;;;;;;;;;;4968176;28;20086;-93
2022/07/23 09:05:22;;;;;;;0.00;0.00;;;;;;;;;;4973502;28;20475;-93
2022/07/23 09:08:08;;;;;;;0.00;0.00;;;;;;;;;;4957298;28;20038;-93
2022/07/23 09:10:34;;;;;;;;;;;;;;;;;;4957493;28;20042;-94
2022/07/23 09:13:00;;;;;;;0.00;0.00;;;;;;;;;;4961329;28;19918;-92
2022/07/23 09:15:25;;;;;;;0.00;0.00;;;;;;;;;;4964348;28;20133;-91
2022/07/23 09:17:51;;;;;;;0.00;0.00;;;;;;;;;;4937785;29;20050;-91
2022/07/23 09:20:17;;;;;;;0.00;0.00;;;;;;;;;;4952881;28;20103;-94
2022/07/23 09:22:48;;;;;;;0.00;0.00;;;;;;;;;;4953967;29;20048;-95
2022/07/23 09:25:16;;;;;;;0.00;0.00;;;;;;;;;;4943247;29;20039;-90
2022/07/23 09:27:46;;;;;;;0.00;0.00;;;;;;;;;;4954044;29;20122;-94
2022/07/23 09:30:12;;;;;;;0.00;0.00;;;;;;;;;;4937719;29;20130;-93
2022/07/23 09:32:40;;;;;;;0.00;0.00;;;;;;;;;;4965356;28;20039;-93
2022/07/23 09:35:06;;;;;;;0.00;0.00;;;;;;;;;;4937702;29;20499;-94
2022/07/23 09:37:32;;;;;;;0.00;0.00;;;;;;;;;;4955542;28;20046;-92
2022/07/23 09:40:13;;;;;;;0.00;0.00;;;;;;;;;;4941360;28;20086;-92
2022/07/23 09:42:39;;;;;;;0.00;0.00;;;;;;;;;;4943708;29;20130;-92
2022/07/23 09:45:12;;;;;;;0.00;0.00;;;;;;;;;;4941595;29;20105;-92
2022/07/23 09:47:43;;;;;;;0.00;0.00;;;;;;;;;;4947894;29;20043;-96
2022/07/23 09:50:13;;;;;;;0.00;0.00;;;;;;;;;;4944142;29;20130;-94
2022/07/23 09:52:59;;;;;;;;;;;;;;;;;;;;;
2022/07/23 09:55:35;;;;;;;0.00;0.00;;;;;;;;;;4963235;29;20071;-88
2022/07/23 09:58:01;;;;;;;0.00;0.00;;;;;;;;;;4941571;29;20137;-94
2022/07/23 10:00:28;;;;;;;0.00;0.00;;;;;;;;;;4941026;29;20402;-92
2022/07/23 10:02:54;;;;;;;0.00;0.00;;;;;;;;;;4957144;29;20043;-92
2022/07/23 10:05:20;;;;;;;0.00;0.00;;;;;;;;;;4956575;29;20451;-92
2022/07/23 10:07:46;;;;;;;0.00;0.00;;;;;;;;;;4956764;29;20454;-91
2022/07/23 10:10:14;;;;;;;0.00;0.00;;;;;;;;;;4956600;28;20039;-92
2022/07/23 10:12:49;;;;;;;0.00;0.00;;;;;;;;;;4956497;29;20047;-91
2022/07/23 10:15:15;;;;;;;0.00;0.00;;;;;;;;;;4956507;29;20051;-93
2022/07/23 10:17:41;;;;;;;0.00;0.00;;;;;;;;;;4956535;29;20050;-93
2022/07/23 10:20:07;;;;;;;0.00;0.00;;;;;;;;;;4956120;28;20549;-91
2022/07/23 10:23:00;;;;;;;0.00;0.00;;;;;;;;;;4974348;28;20061;-92
2022/07/23 10:25:32;;;;;;;0.00;0.00;;;;;;;;;;4941314;28;20054;-95
2022/07/23 10:28:07;;;;;;;0.00;0.00;;;;;;;;;;4960471;28;20042;-94
2022/07/23 10:30:33;;;;;;;;;;;;;;;;;;4960064;28;20047;-91
2022/07/23 10:33:18;;;;;;;0.00;0.00;;;;;;;;;;4975500;28;20008;-90
2022/07/23 10:35:47;;;;;;;0.00;0.00;;;;;;;;;;4959558;28;20046;-90
2022/07/23 10:38:16;;;;;;;0.00;0.00;;;;;;;;;;4975560;28;20047;-89
2022/07/23 10:40:56;;;;;;;0.00;0.00;;;;;;;;;;4974729;28;20078;-88
2022/07/23 10:43:22;;;;;;;0.00;0.00;;;;;;;;;;4975143;28;20034;-93
2022/07/23 10:45:48;;;;;;;0.00;0.00;;;;;;;;;;4974638;28;20042;-89
2022/07/23 10:48:14;;;;;;;0.00;0.00;;;;;;;;;;4975054;28;20070;-89
2022/07/23 10:50:40;;;;;;;0.00;0.00;;;;;;;;;;4974718;28;20078;-89
2022/07/23 10:53:11;;;;;;;0.00;0.00;;;;;;;;;;4959111;28;20055;-90
2022/07/23 10:55:37;;;;;;;0.00;0.00;;;;;;;;;;4974760;28;20065;-88
2022/07/23 10:58:05;;;;;;;0.00;0.00;;;;;;;;;;4975081;28;20046;-88
2022/07/23 11:00:32;;;;;;;0.00;0.00;;;;;;;;;;4974415;28;20058;-88
2022/07/23 11:02:59;;;;;;;0.00;0.00;;;;;;;;;;4976156;28;20046;-88
2022/07/23 11:05:26;;;;;;;0.00;0.00;;;;;;;;;;4976081;28;20047;-91
2022/07/23 11:08:04;;;;;;;0.00;0.00;;;;;;;;;;4975798;28;20074;-90
2022/07/23 11:10:35;;;;;;;0.00;0.00;;;;;;;;;;4974429;28;20035;-87
2022/07/23 11:13:20;;;;;;;0.00;0.00;;;;;;;;;;4974752;28;20106;-89
2022/07/23 11:16:02;;;;;;;0.00;0.00;;;;;;;;;;4957897;28;20042;-88
2022/07/23 11:18:43;;;;;;;0.00;0.00;;;;;;;;;;4974714;28;20038;-89
2022/07/23 11:21:22;;;;;;;0.00;0.00;;;;;;;;;;4975056;28;20062;-88
2022/07/23 11:24:03;;;;;;;0.00;0.00;;;;;;;;;;4974415;28;20038;-89
2022/07/23 11:26:41;;;;;;;0.00;0.00;;;;;;;;;;4957964;28;20105;-89
2022/07/23 11:29:25;;;;;;;0.00;0.00;;;;;;;;;;4959218;28;20123;-95
2022/07/23 11:31:55;;;;;;;0.00;0.00;;;;;;;;;;4974891;28;20070;-93
2022/07/23 11:34:33;;;;;;;0.00;0.00;;;;;;;;;;4959078;28;20043;-93
2022/07/23 11:37:03;;;;;;;0.00;0.00;;;;;;;;;;4974839;28;20105;-93
2022/07/23 11:39:33;;;;;;;0.00;0.00;;;;;;;;;;4975393;28;20149;-94
2022/07/23 11:41:59;;;;;;;0.00;0.00;;;;;;;;;;4974494;28;20045;-93
2022/07/23 11:44:26;;;;;;;0.00;0.00;;;;;;;;;;4976986;28;20046;-95
2022/07/23 11:46:56;;;;;;;0.00;0.00;;;;;;;;;;4981318;28;20042;-88
2022/07/23 11:49:22;;;;;;;0.00;0.00;;;;;;;;;;4976623;28;20047;-91
2022/07/23 11:52:03;;;;;;;0.00;0.00;;;;;;;;;;4973761;28;20130;-91
2022/07/23 11:54:29;;;;;;;0.00;0.00;;;;;;;;;;4975113;28;20506;-89
2022/07/23 11:56:56;;;;;;;0.00;0.00;;;;;;;;;;4973673;28;20081;-91
2022/07/23 11:59:23;;;;;;;0.00;0.00;;;;;;;;;;5160689;23;20562;-93
2022/07/23 12:02:04;;;;;;;0.00;0.00;;;;;;;;;;4952165;28;20044;-90
2022/07/23 12:04:40;;;;;;;0.00;0.00;;;;;;;;;;4919408;29;20044;-90
2022/07/23 12:07:23;;;;;;;0.00;0.00;;;;;;;;;;4935453;29;20050;-90
2022/07/23 12:09:49;;;;;;;0.00;0.00;;;;;;;;;;4935020;29;20043;-91
2022/07/23 12:12:15;;;;;;;0.00;0.00;;;;;;;;;;4935010;29;20051;-90
2022/07/23 12:14:51;;;;;;;0.00;0.00;;;;;;;;;;4919338;29;20402;-89
2022/07/23 12:17:17;;;;;;;0.00;0.00;;;;;;;;;;4935041;29;20050;-90
2022/07/23 12:19:44;;;;;;;0.00;0.00;;;;;;;;;;4935025;29;20110;-91
2022/07/23 12:22:10;;;;;;;0.00;0.00;;;;;;;;;;4934592;29;20059;-90
2022/07/23 12:24:54;;;;;;;0.00;0.00;;;;;;;;;;4935200;29;20043;-90
2022/07/23 12:27:21;;;;;;;0.00;0.00;;;;;;;;;;4936066;29;20039;-92
2022/07/23 12:29:47;;;;;;;0.00;0.00;;;;;;;;;;4935040;29;20036;-91
2022/07/23 12:32:27;;;;;;;0.00;0.00;;;;;;;;;;4934449;29;20050;-90
2022/07/23 12:35:03;;;;;;;0.00;0.00;;;;;;;;;;4934824;29;20079;-90
2022/07/23 12:37:40;;;;;;;0.00;0.00;;;;;;;;;;4934514;29;20396;-89
2022/07/23 12:40:23;;;;;;;0.00;0.00;;;;;;;;;;4918678;29;20075;-90
2022/07/23 12:42:52;;;;;;;0.00;0.00;;;;;;;;;;4934517;29;20102;-90
2022/07/23 12:45:18;;;;;;;0.00;0.00;;;;;;;;;;4934438;29;20082;-90
2022/07/23 12:47:51;;;;;;;0.00;0.00;;;;;;;;;;4934505;29;20043;-90
2022/07/23 12:50:32;;;;;;;0.00;0.00;;;;;;;;;;4934227;29;20047;-91
2022/07/23 12:53:05;;;;;;;0.00;0.00;;;;;;;;;;4934631;29;20048;-90
2022/07/23 12:55:32;;;;;;;0.00;0.00;;;;;;;;;;4934630;29;20183;-91
2022/07/23 12:58:05;;;;;;;0.00;0.00;;;;;;;;;;4918653;29;20039;-90
2022/07/23 13:00:31;;;;;;;0.00;0.00;;;;;;;;;;4935181;29;20056;-90
2022/07/23 13:02:57;;;;;;;0.00;0.00;;;;;;;;;;4934309;29;20052;-90
2022/07/23 13:05:23;;;;;;;0.00;0.00;;;;;;;;;;4934227;29;20075;-91
2022/07/23 13:07:49;;;;;;;0.00;0.00;;;;;;;;;;4919061;29;20086;-92
2022/07/23 13:10:15;;;;;;;0.00;0.00;;;;;;;;;;4934455;29;20082;-91
2022/07/23 13:12:41;;;;;;;0.00;0.00;;;;;;;;;;4935985;29;20043;-91
2022/07/23 13:15:07;;;;;;;0.00;0.00;;;;;;;;;;4938512;29;20073;-90
2022/07/23 13:17:33;;;;;;;0.00;0.00;;;;;;;;;;4937967;29;20054;-90
2022/07/23 13:19:59;;;;;;;0.00;0.00;;;;;;;;;;4938541;29;20050;-92
2022/07/23 13:22:25;;;;;;;0.00;0.00;;;;;;;;;;4937911;29;20144;-90
2022/07/23 13:24:52;;;;;;;0.00;0.00;;;;;;;;;;4939334;29;20095;-93
2022/07/23 13:27:18;;;;;;;0.00;0.00;;;;;;;;;;4922623;29;20202;-91
2022/07/23 13:29:44;;;;;;;0.00;0.00;;;;;;;;;;4938428;29;20551;-91
2022/07/23 13:32:10;;;;;;;0.00;0.00;;;;;;;;;;4939133;29;20054;-92
2022/07/23 13:34:36;;;;;;;0.00;0.00;;;;;;;;;;4939497;29;20047;-91
2022/07/23 13:37:02;;;;;;;0.00;0.00;;;;;;;;;;4937721;29;20051;-92
2022/07/23 13:39:28;;;;;;;0.00;0.00;;;;;;;;;;4938020;29;20052;-91
2022/07/23 13:41:54;;;;;;;0.00;0.00;;;;;;;;;;4937509;29;20050;-91
2022/07/23 13:44:20;;;;;;;0.00;0.00;;;;;;;;;;4938016;29;20126;-90
2022/07/23 13:46:46;;;;;;;0.00;0.00;;;;;;;;;;4937483;29;20462;-90
2022/07/23 13:49:12;;;;;;;0.00;0.00;;;;;;;;;;4937768;29;20043;-91
2022/07/23 13:51:38;;;;;;;0.00;0.00;;;;;;;;;;4937657;29;20054;-91
2022/07/23 13:54:04;;;;;;;0.00;0.00;;;;;;;;;;4921795;29;20114;-90
2022/07/23 13:56:30;;;;;;;0.00;0.00;;;;;;;;;;4937463;29;20173;-90
2022/07/23 13:58:56;;;;;;;0.00;0.00;;;;;;;;;;4937688;29;20058;-90
2022/07/23 14:01:22;;;;;;;0.00;0.00;;;;;;;;;;4937230;29;20488;-91
2022/07/23 14:03:48;;;;;;;0.00;0.00;;;;;;;;;;4937774;29;20035;-90
2022/07/23 14:06:14;;;;;;;0.00;0.00;;;;;;;;;;4937445;29;20106;-91
2022/07/23 14:08:40;;;;;;;0.00;0.00;;;;;;;;;;4937738;29;20102;-91
2022/07/23 14:11:06;;;;;;;0.00;0.00;;;;;;;;;;4937041;29;20348;-91
2022/07/23 14:13:32;;;;;;;0.30;0.00;;;;;;;;;;4937779;29;20054;-91
2022/07/23 14:15:58;;;;;;;0.00;0.00;;;;;;;;;;4937318;29;20047;-91
2022/07/23 14:18:24;;;;;;;0.00;0.00;;;;;;;;;;4937305;29;20530;-90
2022/07/23 14:20:49;;;;;;;0.00;0.00;;;;;;;;;;4938576;29;20051;-91
2022/07/23 14:23:15;;;;;;;0.00;0.00;;;;;;;;;;4936733;29;20464;-91
2022/07/23 14:25:42;;;;;;;0.00;0.00;;;;;;;;;;4921328;29;20504;-90
2022/07/23 14:28:08;;;;;;;0.00;0.00;;;;;;;;;;4936865;29;20035;-91
2022/07/23 14:30:34;;;;;;;0.00;0.00;;;;;;;;;;4936972;29;20082;-90
2022/07/23 14:33:00;;;;;;;0.00;0.00;;;;;;;;;;4937092;29;20054;-90
2022/07/23 14:35:26;;;;;;;0.00;0.00;;;;;;;;;;4937044;29;20039;-86
2022/07/23 14:37:52;;;;;;;0.00;0.00;;;;;;;;;;4936783;29;20047;-86
2022/07/23 14:40:18;;;;;;;0.00;0.00;;;;;;;;;;4920947;29;20047;-88
2022/07/23 14:42:45;;;;;;;0.00;0.00;;;;;;;;;;4936703;29;20059;-87
2022/07/23 14:45:11;;;;;;;0.00;0.00;;;;;;;;;;4936866;29;20047;-88
2022/07/23 14:47:37;;;;;;;0.00;0.00;;;;;;;;;;4936412;29;20050;-88